Southern Star — WDG9984 — position and weather

sailwx.info

Track history (hours):
 
Tides and Currents Weather Stations Pressure Air Temp Water Temp Dewpoint Dewpoint Depression Visibility Wind Speed Wind Dir Waves Ship Positions

Southern Star

Owner: Southern Star, LLC, Chesapeake, VA. More information available from US FCC via Universal Licensing System and Coast Guard Vessel Documentation Center.

Last reported at 2018-Jun-19 12:50 UTC. Time now 2018-Jun-19 21:41 UTC.
Position N 39°30' W 074°11'.

Length 24 m; draft 3.5 m.

Type: Tug. MMSI: 367593210.

Date/timePositionNaut miles runAvg speedWind from/ knotsBaromVisibWave heightAir tempDewpointWater temp
2018-Jun-19 12:50N 39°30' W 074°11'3 7.4
2018-Jun-19 12:27N 39°32' W 074°09'6 7.3
2018-Jun-19 11:35N 39°38' W 074°05'1 7.2
2018-Jun-19 11:30N 39°38' W 074°04'3 7.0
2018-Jun-19 11:01N 39°41' W 074°02'3 6.9
2018-Jun-19 10:31N 39°44' W 074°00'4 7.1
2018-Jun-19 10:00N 39°48' W 073°60'45 6.7
2018-Jun-19 03:22N 40°33' W 074°02'2 6.3
2018-Jun-19 02:59N 40°35' W 074°02'3 6.4
2018-Jun-19 02:30N 40°38' W 074°03'2 3.8
2018-Jun-19 02:01N 40°40' W 074°04'1 1.2
2018-Jun-19 01:30N 40°40' W 074°04'0 0.0
2018-Jun-19 01:01N 40°40' W 074°04'0 0.1
2018-Jun-19 00:31N 40°40' W 074°04'1 2.3
2018-Jun-19 00:00N 40°39' W 074°03'3 6.3
2018-Jun-18 23:30N 40°36' W 074°02'3 5.5
2018-Jun-18 23:01N 40°34' W 074°01'1 1.1
2018-Jun-18 22:31N 40°33' W 074°01'32 4.8
2018-Jun-18 15:53N 40°01' W 073°57'13 6.3
2018-Jun-18 13:51N 39°49' W 073°60'2 6.3
2018-Jun-18 13:30N 39°47' W 073°60'4 6.3
2018-Jun-18 12:55N 39°43' W 074°01'3 6.3
2018-Jun-18 12:29N 39°41' W 074°03'3 4.9
2018-Jun-18 11:57N 39°40' W 074°06'2 3.1
2018-Jun-18 11:22N 39°39' W 074°07'2 6.3
2018-Jun-18 11:01N 39°37' W 074°09'4 6.3
2018-Jun-18 10:25N 39°34' W 074°11'3 6.2
2018-Jun-18 10:00N 39°31' W 074°13'4 6.2
2018-Jun-18 09:25N 39°28' W 074°15'3 6.0
2018-Jun-18 08:59N 39°26' W 074°17'3 6.0
2018-Jun-18 08:26N 39°23' W 074°19'3 6.2
2018-Jun-18 07:56N 39°21' W 074°21'3 6.2
2018-Jun-18 07:27N 39°18' W 074°23'3 6.1
2018-Jun-18 06:57N 39°16' W 074°26'3 6.0
2018-Jun-18 06:30N 39°14' W 074°28'3 5.9
2018-Jun-18 05:59N 39°11' W 074°30'163 5.2
2018-Jun-16 22:43N 36°54' W 076°20'1 6.7
2018-Jun-16 22:30N 36°52' W 076°20'3 6.7
2018-Jun-16 22:01N 36°50' W 076°18'3 5.9
2018-Jun-16 21:30N 36°47' W 076°18'1 1.4
2018-Jun-16 21:01N 36°46' W 076°18'0 0.0
2018-Jun-16 20:31N 36°46' W 076°18'0 0.0
2018-Jun-16 20:01N 36°46' W 076°18'0 0.0
2018-Jun-16 19:30N 36°46' W 076°18'0 0.0
2018-Jun-16 19:01N 36°46' W 076°18'1 1.4
2018-Jun-16 18:31N 36°47' W 076°18'2 3.0
2018-Jun-16 18:00N 36°48' W 076°18'2 3.9
2018-Jun-16 17:31N 36°46' W 076°18'0 0.7
2018-Jun-16 17:01N 36°46' W 076°18'1 1.4
2018-Jun-16 16:31N 36°47' W 076°18'2 3.9
2018-Jun-16 16:01N 36°48' W 076°17'0 0.0
2018-Jun-16 15:31N 36°48' W 076°17'0 0.0
2018-Jun-16 15:01N 36°48' W 076°17'0 0.0
2018-Jun-16 14:31N 36°48' W 076°17'0 0.0
2018-Jun-16 14:01N 36°48' W 076°17'0 0.0
2018-Jun-16 13:30N 36°48' W 076°17'0 0.0
2018-Jun-16 13:01N 36°48' W 076°17'0 0.0
2018-Jun-16 12:30N 36°48' W 076°17'0 0.0
2018-Jun-16 12:00N 36°48' W 076°17'0 0.0
2018-Jun-16 11:31N 36°48' W 076°17'0 0.0
2018-Jun-16 11:01N 36°48' W 076°17'0 0.0
2018-Jun-16 10:30N 36°48' W 076°17'0 0.0
2018-Jun-16 10:01N 36°48' W 076°17'0 0.0
2018-Jun-16 09:31N 36°48' W 076°17'0 0.0
2018-Jun-16 09:00N 36°48' W 076°17'0 0.0
2018-Jun-16 08:30N 36°48' W 076°17'0 0.0
2018-Jun-16 08:01N 36°48' W 076°17'0 0.0
2018-Jun-16 07:31N 36°48' W 076°17'0 0.0
2018-Jun-16 07:01N 36°48' W 076°17'0 0.0
2018-Jun-16 06:31N 36°48' W 076°17'0 0.0
2018-Jun-16 06:01N 36°48' W 076°17'0 0.0
2018-Jun-16 05:31N 36°48' W 076°17'0 0.0
2018-Jun-16 05:00N 36°48' W 076°17'0 0.0
2018-Jun-16 04:31N 36°48' W 076°17'0 0.0
2018-Jun-16 04:01N 36°48' W 076°17'0 0.0
2018-Jun-16 03:31N 36°48' W 076°17'0 0.0
2018-Jun-16 03:00N 36°48' W 076°17'0 0.0
2018-Jun-16 02:30N 36°48' W 076°17'0 0.0
2018-Jun-16 02:01N 36°48' W 076°17'1 1.6
2018-Jun-16 01:31N 36°48' W 076°18'0 0.0
2018-Jun-16 01:01N 36°48' W 076°18'1 1.5
2018-Jun-16 00:31N 36°48' W 076°17'0 0.2
2018-Jun-16 00:00N 36°48' W 076°17'0 0.0
2018-Jun-15 23:30N 36°48' W 076°17'1 1.3
2018-Jun-15 23:01N 36°49' W 076°17'1 2.2
2018-Jun-15 22:30N 36°50' W 076°18'77 6.5
2018-Jun-15 10:33N 38°07' W 076°16'1 6.6
2018-Jun-15 10:23N 38°08' W 076°16'43 6.3
2018-Jun-15 03:34N 38°51' W 076°26'0 6.1
2018-Jun-15 03:30N 38°51' W 076°26'4 7.6
2018-Jun-15 03:01N 38°55' W 076°25'4 7.5
2018-Jun-15 02:31N 38°58' W 076°23'4 7.1
2018-Jun-15 01:53N 39°03' W 076°23'4 7.2
2018-Jun-15 01:23N 39°06' W 076°24'4 6.9
2018-Jun-15 00:44N 39°10' W 076°26'2 6.9
2018-Jun-15 00:30N 39°11' W 076°28'3 5.1
2018-Jun-15 00:01N 39°11' W 076°31'0 0.5
2018-Jun-14 23:30N 39°11' W 076°31'0 0.0
2018-Jun-14 22:59N 39°11' W 076°31'0 0.0
2018-Jun-14 20:15N 39°11' W 076°31'0 0.0
2018-Jun-14 18:33N 39°11' W 076°31'0 0.1
2018-Jun-14 18:26N 39°11' W 076°31'0 0.0
2018-Jun-14 18:00N 39°11' W 076°31'0 0.0
2018-Jun-14 17:28N 39°11' W 076°31'0 0.0
2018-Jun-14 16:57N 39°11' W 076°31'0 0.0
2018-Jun-14 16:27N 39°11' W 076°31'1 3.2
2018-Jun-14 16:00N 39°12' W 076°30'13 7.4
2018-Jun-14 14:15N 39°00' W 076°23'4 8.2
2018-Jun-14 13:45N 38°56' W 076°24'2 8.5
2018-Jun-14 13:30N 38°54' W 076°25'29 8.5
2018-Jun-14 10:09N 38°26' W 076°23'91 9.3
2018-Jun-14 00:25N 36°55' W 076°20'4 8.2
2018-Jun-13 23:59N 36°52' W 076°19'3 5.0
2018-Jun-13 23:29N 36°49' W 076°17'1 1.8
2018-Jun-13 23:00N 36°48' W 076°17'0 0.0
2018-Jun-13 22:30N 36°48' W 076°17'0 0.0
2018-Jun-13 22:00N 36°48' W 076°17'0 0.0
2018-Jun-13 21:30N 36°48' W 076°17'0 0.0
2018-Jun-13 21:00N 36°48' W 076°17'0 0.0
2018-Jun-13 20:30N 36°48' W 076°17'0 0.0
2018-Jun-13 20:00N 36°48' W 076°17'0 0.0
2018-Jun-13 19:29N 36°48' W 076°17'0 0.0
2018-Jun-13 18:59N 36°48' W 076°17'0 0.0
2018-Jun-13 18:30N 36°48' W 076°17'0 0.0
2018-Jun-13 17:58N 36°48' W 076°17'0 0.0
2018-Jun-13 17:30N 36°48' W 076°17'0 0.0
2018-Jun-13 17:00N 36°48' W 076°17'0 0.0
2018-Jun-13 16:30N 36°48' W 076°17'0 0.0
2018-Jun-13 16:00N 36°48' W 076°17'0 0.0
2018-Jun-13 15:30N 36°48' W 076°17'0 0.0
2018-Jun-13 15:00N 36°48' W 076°17'0 0.0
2018-Jun-13 14:30N 36°48' W 076°17'0 0.0
2018-Jun-13 14:00N 36°48' W 076°17'0 0.0
2018-Jun-13 13:30N 36°48' W 076°17'0 0.0
2018-Jun-13 13:00N 36°48' W 076°17'0 0.0
2018-Jun-13 12:30N 36°48' W 076°17'0 0.0
2018-Jun-13 12:00N 36°48' W 076°17'1 1.1
2018-Jun-13 11:29N 36°49' W 076°17'0 0.6
2018-Jun-13 11:00N 36°49' W 076°17'0 0.0
2018-Jun-13 10:30N 36°49' W 076°17'0 0.0
2018-Jun-13 09:59N 36°49' W 076°17'0 0.0
2018-Jun-13 09:30N 36°49' W 076°17'0 0.0
2018-Jun-13 09:00N 36°49' W 076°17'0 0.0
2018-Jun-13 08:30N 36°49' W 076°17'0 0.0
2018-Jun-13 08:00N 36°49' W 076°17'0 0.0
2018-Jun-13 07:30N 36°49' W 076°17'0 0.0
2018-Jun-13 07:00N 36°49' W 076°17'0 0.0
2018-Jun-13 06:30N 36°49' W 076°17'0 0.0
2018-Jun-13 06:00N 36°49' W 076°17'0 0.0
2018-Jun-13 05:30N 36°49' W 076°17'0 0.0
2018-Jun-13 05:00N 36°49' W 076°17'0 0.0
2018-Jun-13 04:30N 36°49' W 076°17'0 0.0
2018-Jun-13 04:00N 36°49' W 076°17'0 0.0
2018-Jun-13 03:30N 36°49' W 076°17'0 0.0
2018-Jun-13 02:50N 36°49' W 076°17'0 0.0
2018-Jun-13 02:23N 36°49' W 076°17'0 0.0
2018-Jun-13 02:00N 36°49' W 076°17'0 0.0
2018-Jun-13 01:30N 36°49' W 076°17'0 0.0
2018-Jun-13 01:00N 36°49' W 076°17'0 0.0
2018-Jun-13 00:30N 36°49' W 076°17'0 0.0
2018-Jun-13 00:00N 36°49' W 076°17'0 0.0
2018-Jun-12 23:30N 36°49' W 076°17'0 0.0
2018-Jun-12 23:00N 36°49' W 076°17'0 0.0
2018-Jun-12 22:30N 36°49' W 076°17'0 0.1
2018-Jun-12 22:00N 36°49' W 076°17'3 5.0
2018-Jun-12 21:30N 36°52' W 076°19'2 2.4
2018-Jun-12 20:42N 36°53' W 076°20'0 0.3
2018-Jun-12 20:28N 36°53' W 076°20'3 1.4
2018-Jun-12 18:25N 36°56' W 076°20'0 0.3
2018-Jun-12 17:48N 36°56' W 076°20'2 7.5
2018-Jun-12 17:30N 36°54' W 076°20'3 7.1
2018-Jun-12 17:00N 36°51' W 076°18'3 6.0
2018-Jun-12 16:30N 36°48' W 076°18'1 2.5
2018-Jun-12 16:00N 36°46' W 076°18'1 1.1
2018-Jun-12 15:30N 36°46' W 076°18'0 0.1
2018-Jun-12 15:00N 36°46' W 076°18'3 5.3
2018-Jun-12 14:30N 36°48' W 076°17'0 0.1
2018-Jun-12 14:00N 36°49' W 076°17'0 0.0
2018-Jun-12 13:30N 36°48' W 076°17'0 0.0
2018-Jun-12 13:00N 36°48' W 076°17'0 0.0
2018-Jun-12 12:30N 36°48' W 076°17'0 0.0
2018-Jun-12 12:00N 36°48' W 076°17'0 0.0
2018-Jun-12 11:30N 36°48' W 076°17'0 0.0
2018-Jun-12 11:00N 36°48' W 076°17'0 0.0
2018-Jun-12 10:30N 36°48' W 076°17'0 0.0
2018-Jun-12 10:00N 36°48' W 076°17'0 0.0
2018-Jun-12 09:30N 36°48' W 076°17'0 0.0
2018-Jun-12 09:00N 36°48' W 076°17'0 0.0
2018-Jun-12 08:30N 36°48' W 076°17'0 0.0
2018-Jun-12 08:00N 36°48' W 076°17'0 0.0
2018-Jun-12 07:30N 36°48' W 076°17'0 0.0
2018-Jun-12 07:00N 36°48' W 076°17'0 0.0
2018-Jun-12 06:30N 36°48' W 076°17'0 0.0
2018-Jun-12 06:00N 36°48' W 076°17'0 0.0
2018-Jun-12 05:30N 36°48' W 076°17'0 0.0
2018-Jun-12 05:00N 36°48' W 076°17'0 0.0
2018-Jun-12 04:30N 36°48' W 076°17'0 0.0
2018-Jun-12 04:00N 36°48' W 076°17'0 0.0
2018-Jun-12 03:30N 36°48' W 076°17'0 0.0
2018-Jun-12 03:00N 36°48' W 076°17'0 0.0
2018-Jun-12 02:30N 36°48' W 076°17'0 0.0
2018-Jun-12 02:00N 36°48' W 076°17'0 0.0
2018-Jun-12 01:30N 36°48' W 076°17'2 3.4
2018-Jun-12 01:00N 36°50' W 076°18'1 1.6
2018-Jun-12 00:30N 36°51' W 076°18'3 5.1
2018-Jun-12 00:00N 36°50' W 076°15'4 7.5
2018-Jun-11 23:30N 36°52' W 076°19'1 0.4
2018-Jun-11 19:26N 36°53' W 076°20'1 0.1
2018-Jun-11 11:09N 36°52' W 076°20'1 7.9
2018-Jun-11 11:00N 36°52' W 076°19'3 4.9
2018-Jun-11 10:30N 36°50' W 076°16'1 2.2
2018-Jun-11 09:57N 36°50' W 076°15'2 5.2
2018-Jun-11 09:30N 36°49' W 076°17'1 1.7
2018-Jun-11 09:00N 36°48' W 076°17'0 0.0
2018-Jun-11 08:30N 36°48' W 076°17'  
Track history (hours):
 
Tides and Currents Weather Stations Pressure Air Temp Water Temp Dewpoint Dewpoint Depression Visibility Wind Speed Wind Dir Waves Ship Positions

Southern Star

Owner: Southern Star, LLC, Chesapeake, VA. More information available from US FCC via Universal Licensing System and Coast Guard Vessel Documentation Center.

Last reported at 2018-Jun-19 12:50 UTC. Time now 2018-Jun-19 21:41 UTC.
Position N 39°30' W 074°11'.

Length 24 m; draft 3.5 m.

Type: Tug. MMSI: 367593210.

Date/timePositionNaut miles runAvg speedWind from/ knotsBaromVisibWave heightAir tempDewpointWater temp
2018-Jun-19 12:50N 39°30' W 074°11'3 7.4
2018-Jun-19 12:27N 39°32' W 074°09'6 7.3
2018-Jun-19 11:35N 39°38' W 074°05'1 7.2
2018-Jun-19 11:30N 39°38' W 074°04'3 7.0
2018-Jun-19 11:01N 39°41' W 074°02'3 6.9
2018-Jun-19 10:31N 39°44' W 074°00'4 7.1
2018-Jun-19 10:00N 39°48' W 073°60'45 6.7
2018-Jun-19 03:22N 40°33' W 074°02'2 6.3
2018-Jun-19 02:59N 40°35' W 074°02'3 6.4
2018-Jun-19 02:30N 40°38' W 074°03'2 3.8
2018-Jun-19 02:01N 40°40' W 074°04'1 1.2
2018-Jun-19 01:30N 40°40' W 074°04'0 0.0
2018-Jun-19 01:01N 40°40' W 074°04'0 0.1
2018-Jun-19 00:31N 40°40' W 074°04'1 2.3
2018-Jun-19 00:00N 40°39' W 074°03'3 6.3
2018-Jun-18 23:30N 40°36' W 074°02'3 5.5
2018-Jun-18 23:01N 40°34' W 074°01'1 1.1
2018-Jun-18 22:31N 40°33' W 074°01'32 4.8
2018-Jun-18 15:53N 40°01' W 073°57'13 6.3
2018-Jun-18 13:51N 39°49' W 073°60'2 6.3
2018-Jun-18 13:30N 39°47' W 073°60'4 6.3
2018-Jun-18 12:55N 39°43' W 074°01'3 6.3
2018-Jun-18 12:29N 39°41' W 074°03'3 4.9
2018-Jun-18 11:57N 39°40' W 074°06'2 3.1
2018-Jun-18 11:22N 39°39' W 074°07'2 6.3
2018-Jun-18 11:01N 39°37' W 074°09'4 6.3
2018-Jun-18 10:25N 39°34' W 074°11'3 6.2
2018-Jun-18 10:00N 39°31' W 074°13'4 6.2
2018-Jun-18 09:25N 39°28' W 074°15'3 6.0
2018-Jun-18 08:59N 39°26' W 074°17'3 6.0
2018-Jun-18 08:26N 39°23' W 074°19'3 6.2
2018-Jun-18 07:56N 39°21' W 074°21'3 6.2
2018-Jun-18 07:27N 39°18' W 074°23'3 6.1
2018-Jun-18 06:57N 39°16' W 074°26'3 6.0
2018-Jun-18 06:30N 39°14' W 074°28'3 5.9
2018-Jun-18 05:59N 39°11' W 074°30'163 5.2
2018-Jun-16 22:43N 36°54' W 076°20'1 6.7
2018-Jun-16 22:30N 36°52' W 076°20'3 6.7
2018-Jun-16 22:01N 36°50' W 076°18'3 5.9
2018-Jun-16 21:30N 36°47' W 076°18'1 1.4
2018-Jun-16 21:01N 36°46' W 076°18'0 0.0
2018-Jun-16 20:31N 36°46' W 076°18'0 0.0
2018-Jun-16 20:01N 36°46' W 076°18'0 0.0
2018-Jun-16 19:30N 36°46' W 076°18'0 0.0
2018-Jun-16 19:01N 36°46' W 076°18'1 1.4
2018-Jun-16 18:31N 36°47' W 076°18'2 3.0
2018-Jun-16 18:00N 36°48' W 076°18'2 3.9
2018-Jun-16 17:31N 36°46' W 076°18'0 0.7
2018-Jun-16 17:01N 36°46' W 076°18'1 1.4
2018-Jun-16 16:31N 36°47' W 076°18'2 3.9
2018-Jun-16 16:01N 36°48' W 076°17'0 0.0
2018-Jun-16 15:31N 36°48' W 076°17'0 0.0
2018-Jun-16 15:01N 36°48' W 076°17'0 0.0
2018-Jun-16 14:31N 36°48' W 076°17'0 0.0
2018-Jun-16 14:01N 36°48' W 076°17'0 0.0
2018-Jun-16 13:30N 36°48' W 076°17'0 0.0
2018-Jun-16 13:01N 36°48' W 076°17'0 0.0
2018-Jun-16 12:30N 36°48' W 076°17'0 0.0
2018-Jun-16 12:00N 36°48' W 076°17'0 0.0
2018-Jun-16 11:31N 36°48' W 076°17'0 0.0
2018-Jun-16 11:01N 36°48' W 076°17'0 0.0
2018-Jun-16 10:30N 36°48' W 076°17'0 0.0
2018-Jun-16 10:01N 36°48' W 076°17'0 0.0
2018-Jun-16 09:31N 36°48' W 076°17'0 0.0
2018-Jun-16 09:00N 36°48' W 076°17'0 0.0
2018-Jun-16 08:30N 36°48' W 076°17'0 0.0
2018-Jun-16 08:01N 36°48' W 076°17'0 0.0
2018-Jun-16 07:31N 36°48' W 076°17'0 0.0
2018-Jun-16 07:01N 36°48' W 076°17'0 0.0
2018-Jun-16 06:31N 36°48' W 076°17'0 0.0
2018-Jun-16 06:01N 36°48' W 076°17'0 0.0
2018-Jun-16 05:31N 36°48' W 076°17'0 0.0
2018-Jun-16 05:00N 36°48' W 076°17'0 0.0
2018-Jun-16 04:31N 36°48' W 076°17'0 0.0
2018-Jun-16 04:01N 36°48' W 076°17'0 0.0
2018-Jun-16 03:31N 36°48' W 076°17'0 0.0
2018-Jun-16 03:00N 36°48' W 076°17'0 0.0
2018-Jun-16 02:30N 36°48' W 076°17'0 0.0
2018-Jun-16 02:01N 36°48' W 076°17'1 1.6
2018-Jun-16 01:31N 36°48' W 076°18'0 0.0
2018-Jun-16 01:01N 36°48' W 076°18'1 1.5
2018-Jun-16 00:31N 36°48' W 076°17'0 0.2
2018-Jun-16 00:00N 36°48' W 076°17'0 0.0
2018-Jun-15 23:30N 36°48' W 076°17'1 1.3
2018-Jun-15 23:01N 36°49' W 076°17'1 2.2
2018-Jun-15 22:30N 36°50' W 076°18'77 6.5
2018-Jun-15 10:33N 38°07' W 076°16'1 6.6
2018-Jun-15 10:23N 38°08' W 076°16'43 6.3
2018-Jun-15 03:34N 38°51' W 076°26'0 6.1
2018-Jun-15 03:30N 38°51' W 076°26'4 7.6
2018-Jun-15 03:01N 38°55' W 076°25'4 7.5
2018-Jun-15 02:31N 38°58' W 076°23'4 7.1
2018-Jun-15 01:53N 39°03' W 076°23'4 7.2
2018-Jun-15 01:23N 39°06' W 076°24'4 6.9
2018-Jun-15 00:44N 39°10' W 076°26'2 6.9
2018-Jun-15 00:30N 39°11' W 076°28'3 5.1
2018-Jun-15 00:01N 39°11' W 076°31'0 0.5
2018-Jun-14 23:30N 39°11' W 076°31'0 0.0
2018-Jun-14 22:59N 39°11' W 076°31'0 0.0
2018-Jun-14 20:15N 39°11' W 076°31'0 0.0
2018-Jun-14 18:33N 39°11' W 076°31'0 0.1
2018-Jun-14 18:26N 39°11' W 076°31'0 0.0
2018-Jun-14 18:00N 39°11' W 076°31'0 0.0
2018-Jun-14 17:28N 39°11' W 076°31'0 0.0
2018-Jun-14 16:57N 39°11' W 076°31'0 0.0
2018-Jun-14 16:27N 39°11' W 076°31'1 3.2
2018-Jun-14 16:00N 39°12' W 076°30'13 7.4
2018-Jun-14 14:15N 39°00' W 076°23'4 8.2
2018-Jun-14 13:45N 38°56' W 076°24'2 8.5
2018-Jun-14 13:30N 38°54' W 076°25'29 8.5
2018-Jun-14 10:09N 38°26' W 076°23'91 9.3
2018-Jun-14 00:25N 36°55' W 076°20'4 8.2
2018-Jun-13 23:59N 36°52' W 076°19'3 5.0
2018-Jun-13 23:29N 36°49' W 076°17'1 1.8
2018-Jun-13 23:00N 36°48' W 076°17'0 0.0
2018-Jun-13 22:30N 36°48' W 076°17'0 0.0
2018-Jun-13 22:00N 36°48' W 076°17'0 0.0
2018-Jun-13 21:30N 36°48' W 076°17'0 0.0
2018-Jun-13 21:00N 36°48' W 076°17'0 0.0
2018-Jun-13 20:30N 36°48' W 076°17'0 0.0
2018-Jun-13 20:00N 36°48' W 076°17'0 0.0
2018-Jun-13 19:29N 36°48' W 076°17'0 0.0
2018-Jun-13 18:59N 36°48' W 076°17'0 0.0
2018-Jun-13 18:30N 36°48' W 076°17'0 0.0
2018-Jun-13 17:58N 36°48' W 076°17'0 0.0
2018-Jun-13 17:30N 36°48' W 076°17'0 0.0
2018-Jun-13 17:00N 36°48' W 076°17'0 0.0
2018-Jun-13 16:30N 36°48' W 076°17'0 0.0
2018-Jun-13 16:00N 36°48' W 076°17'0 0.0
2018-Jun-13 15:30N 36°48' W 076°17'0 0.0
2018-Jun-13 15:00N 36°48' W 076°17'0 0.0
2018-Jun-13 14:30N 36°48' W 076°17'0 0.0
2018-Jun-13 14:00N 36°48' W 076°17'0 0.0
2018-Jun-13 13:30N 36°48' W 076°17'0 0.0
2018-Jun-13 13:00N 36°48' W 076°17'0 0.0
2018-Jun-13 12:30N 36°48' W 076°17'0 0.0
2018-Jun-13 12:00N 36°48' W 076°17'1 1.1
2018-Jun-13 11:29N 36°49' W 076°17'0 0.6
2018-Jun-13 11:00N 36°49' W 076°17'0 0.0
2018-Jun-13 10:30N 36°49' W 076°17'0 0.0
2018-Jun-13 09:59N 36°49' W 076°17'0 0.0
2018-Jun-13 09:30N 36°49' W 076°17'0 0.0
2018-Jun-13 09:00N 36°49' W 076°17'0 0.0
2018-Jun-13 08:30N 36°49' W 076°17'0 0.0
2018-Jun-13 08:00N 36°49' W 076°17'0 0.0
2018-Jun-13 07:30N 36°49' W 076°17'0 0.0
2018-Jun-13 07:00N 36°49' W 076°17'0 0.0
2018-Jun-13 06:30N 36°49' W 076°17'0 0.0
2018-Jun-13 06:00N 36°49' W 076°17'0 0.0
2018-Jun-13 05:30N 36°49' W 076°17'0 0.0
2018-Jun-13 05:00N 36°49' W 076°17'0 0.0
2018-Jun-13 04:30N 36°49' W 076°17'0 0.0
2018-Jun-13 04:00N 36°49' W 076°17'0 0.0
2018-Jun-13 03:30N 36°49' W 076°17'0 0.0
2018-Jun-13 02:50N 36°49' W 076°17'0 0.0
2018-Jun-13 02:23N 36°49' W 076°17'0 0.0
2018-Jun-13 02:00N 36°49' W 076°17'0 0.0
2018-Jun-13 01:30N 36°49' W 076°17'0 0.0
2018-Jun-13 01:00N 36°49' W 076°17'0 0.0
2018-Jun-13 00:30N 36°49' W 076°17'0 0.0
2018-Jun-13 00:00N 36°49' W 076°17'0 0.0
2018-Jun-12 23:30N 36°49' W 076°17'0 0.0
2018-Jun-12 23:00N 36°49' W 076°17'0 0.0
2018-Jun-12 22:30N 36°49' W 076°17'0 0.1
2018-Jun-12 22:00N 36°49' W 076°17'3 5.0
2018-Jun-12 21:30N 36°52' W 076°19'2 2.4
2018-Jun-12 20:42N 36°53' W 076°20'0 0.3
2018-Jun-12 20:28N 36°53' W 076°20'3 1.4
2018-Jun-12 18:25N 36°56' W 076°20'0 0.3
2018-Jun-12 17:48N 36°56' W 076°20'2 7.5
2018-Jun-12 17:30N 36°54' W 076°20'3 7.1
2018-Jun-12 17:00N 36°51' W 076°18'3 6.0
2018-Jun-12 16:30N 36°48' W 076°18'1 2.5
2018-Jun-12 16:00N 36°46' W 076°18'1 1.1
2018-Jun-12 15:30N 36°46' W 076°18'0 0.1
2018-Jun-12 15:00N 36°46' W 076°18'3 5.3
2018-Jun-12 14:30N 36°48' W 076°17'0 0.1
2018-Jun-12 14:00N 36°49' W 076°17'0 0.0
2018-Jun-12 13:30N 36°48' W 076°17'0 0.0
2018-Jun-12 13:00N 36°48' W 076°17'0 0.0
2018-Jun-12 12:30N 36°48' W 076°17'0 0.0
2018-Jun-12 12:00N 36°48' W 076°17'0 0.0
2018-Jun-12 11:30N 36°48' W 076°17'0 0.0
2018-Jun-12 11:00N 36°48' W 076°17'0 0.0
2018-Jun-12 10:30N 36°48' W 076°17'0 0.0
2018-Jun-12 10:00N 36°48' W 076°17'0 0.0
2018-Jun-12 09:30N 36°48' W 076°17'0 0.0
2018-Jun-12 09:00N 36°48' W 076°17'0 0.0
2018-Jun-12 08:30N 36°48' W 076°17'0 0.0
2018-Jun-12 08:00N 36°48' W 076°17'0 0.0
2018-Jun-12 07:30N 36°48' W 076°17'0 0.0
2018-Jun-12 07:00N 36°48' W 076°17'0 0.0
2018-Jun-12 06:30N 36°48' W 076°17'0 0.0
2018-Jun-12 06:00N 36°48' W 076°17'0 0.0
2018-Jun-12 05:30N 36°48' W 076°17'0 0.0
2018-Jun-12 05:00N 36°48' W 076°17'0 0.0
2018-Jun-12 04:30N 36°48' W 076°17'0 0.0
2018-Jun-12 04:00N 36°48' W 076°17'0 0.0
2018-Jun-12 03:30N 36°48' W 076°17'0 0.0
2018-Jun-12 03:00N 36°48' W 076°17'0 0.0
2018-Jun-12 02:30N 36°48' W 076°17'0 0.0
2018-Jun-12 02:00N 36°48' W 076°17'0 0.0
2018-Jun-12 01:30N 36°48' W 076°17'2 3.4
2018-Jun-12 01:00N 36°50' W 076°18'1 1.6
2018-Jun-12 00:30N 36°51' W 076°18'3 5.1
2018-Jun-12 00:00N 36°50' W 076°15'4 7.5
2018-Jun-11 23:30N 36°52' W 076°19'1 0.4
2018-Jun-11 19:26N 36°53' W 076°20'1 0.1
2018-Jun-11 11:09N 36°52' W 076°20'1 7.9
2018-Jun-11 11:00N 36°52' W 076°19'3 4.9
2018-Jun-11 10:30N 36°50' W 076°16'1 2.2
2018-Jun-11 09:57N 36°50' W 076°15'2 5.2
2018-Jun-11 09:30N 36°49' W 076°17'1 1.7
2018-Jun-11 09:00N 36°48' W 076°17'0 0.0
2018-Jun-11 08:30N 36°48' W 076°17'  

Dump ship's entire track history